Terminal Aerodrome Forecast
Issued by NWS

Home | Current Version | Previous Version | Text Only | Print | Product List | Glossary On
Versions: 1 2 3 4 5 6 7 8 9 10 11 12 13 14 15 16 17 18 19 20 21
000
FTUS43 KLSX 040520
TAFUIN
TAF
KUIN 040520Z 0406/0506 23010KT P6SM BKN060
      TEMPO 0406/0409 6SM -SHRA
     FM040900 26011KT P6SM BKN060
     FM041200 33013G22KT P6SM SCT060
     FM041800 34017G26KT P6SM SCT040
     FM050100 33009KT P6SM SKC=

USA.gov is the U.S. government's official web portal to all federal, state and local government web resources and services.